SXS8 LTAI-LWSK
Flight info
| Callsign | SXS8 |
|---|---|
| Flight time | 1h 33m |
| Altitude | 36000 |
| Route | EVBOL1K EVBOL UT489 IMR UN127 RIKSO DCT STINO DCT FSK N128 RUGAS RUGAS2B |
| Aircraft | B738/M-SADE1E2FGHIRWXY/H |
Departure
| Time | 2026-05-06 12:18 |
|---|---|
| Airport | Antalya International Airport (LTAI) |
Arrival
| Time | 2026-05-06 13:51 |
|---|---|
| Airport | Skopje International Airport (LWSK) |
| Time | Latitude | Longitude | Altitude | Speed | Heading |
|---|---|---|---|---|---|
| 2026-05-06 11:33 | 36.89577 | 30.79709 | 191 ft | 0 kts | 186° |
| 2026-05-06 11:39 | 36.89578 | 30.79709 | 191 ft | 0 kts | 186° |
| 2026-05-06 11:55 | 36.89578 | 30.79710 | 191 ft | 0 kts | 186° |
| 2026-05-06 11:58 | 36.89579 | 30.79710 | 191 ft | 0 kts | 186° |
| 2026-05-06 12:06 | 36.89592 | 30.79711 | 220 ft | 3 kts | 185° |
| 2026-05-06 12:07 | 36.89609 | 30.79713 | 199 ft | 3 kts | 182° |
| 2026-05-06 12:07 | 36.89630 | 30.79713 | 202 ft | 3 kts | 177° |
| 2026-05-06 12:07 | 36.89650 | 30.79711 | 205 ft | 2 kts | 172° |
| 2026-05-06 12:07 | 36.89656 | 30.79710 | 202 ft | 0 kts | 171° |
| 2026-05-06 12:11 | 36.89649 | 30.79716 | 202 ft | 3 kts | 143° |
| 2026-05-06 12:11 | 36.89640 | 30.79758 | 191 ft | 8 kts | 98° |
| 2026-05-06 12:11 | 36.89632 | 30.79845 | 201 ft | 12 kts | 96° |
| 2026-05-06 12:12 | 36.89621 | 30.79965 | 191 ft | 15 kts | 96° |
| 2026-05-06 12:12 | 36.89609 | 30.80098 | 191 ft | 15 kts | 96° |
| 2026-05-06 12:12 | 36.89597 | 30.80226 | 195 ft | 15 kts | 96° |
| 2026-05-06 12:12 | 36.89587 | 30.80347 | 196 ft | 14 kts | 96° |
| 2026-05-06 12:13 | 36.89577 | 30.80464 | 201 ft | 13 kts | 96° |
| 2026-05-06 12:13 | 36.89566 | 30.80576 | 191 ft | 13 kts | 96° |
| 2026-05-06 12:13 | 36.89566 | 30.80672 | 198 ft | 11 kts | 60° |
| 2026-05-06 12:13 | 36.89635 | 30.80700 | 199 ft | 11 kts | 6° |
| 2026-05-06 12:14 | 36.89707 | 30.80710 | 203 ft | 10 kts | 6° |
| 2026-05-06 12:14 | 36.89777 | 30.80720 | 203 ft | 10 kts | 6° |
| 2026-05-06 12:14 | 36.89846 | 30.80729 | 204 ft | 10 kts | 6° |
| 2026-05-06 12:14 | 36.89912 | 30.80738 | 204 ft | 10 kts | 6° |
| 2026-05-06 12:15 | 36.89985 | 30.80748 | 204 ft | 12 kts | 7° |
| 2026-05-06 12:15 | 36.90084 | 30.80762 | 191 ft | 16 kts | 6° |
| 2026-05-06 12:15 | 36.90212 | 30.80778 | 196 ft | 20 kts | 6° |
| 2026-05-06 12:15 | 36.90360 | 30.80799 | 194 ft | 22 kts | 6° |
| 2026-05-06 12:16 | 36.90517 | 30.80821 | 200 ft | 23 kts | 6° |
| 2026-05-06 12:16 | 36.90671 | 30.80842 | 201 ft | 22 kts | 6° |
| 2026-05-06 12:16 | 36.90821 | 30.80863 | 190 ft | 21 kts | 6° |
| 2026-05-06 12:16 | 36.90967 | 30.80883 | 195 ft | 21 kts | 7° |
| 2026-05-06 12:17 | 36.91104 | 30.80908 | 190 ft | 17 kts | 24° |
| 2026-05-06 12:17 | 36.91133 | 30.81035 | 193 ft | 16 kts | 96° |
| 2026-05-06 12:17 | 36.91076 | 30.81137 | 194 ft | 16 kts | 185° |
| 2026-05-06 12:17 | 36.90966 | 30.81120 | 190 ft | 20 kts | 186° |
| 2026-05-06 12:18 | 36.90599 | 30.81070 | 189 ft | 87 kts | 186° |
| 2026-05-06 12:18 | 36.89782 | 30.80958 | 202 ft | 146 kts | 186° |
| 2026-05-06 12:18 | 36.88672 | 30.80817 | 586 ft | 164 kts | 185° |
| 2026-05-06 12:18 | 36.87491 | 30.80827 | 1114 ft | 179 kts | 171° |
| 2026-05-06 12:19 | 36.86264 | 30.81084 | 2024 ft | 178 kts | 169° |
| 2026-05-06 12:19 | 36.85006 | 30.81343 | 2807 ft | 191 kts | 172° |
| 2026-05-06 12:19 | 36.83619 | 30.81649 | 3218 ft | 215 kts | 172° |
| 2026-05-06 12:19 | 36.82099 | 30.81890 | 3746 ft | 225 kts | 172° |
| 2026-05-06 12:20 | 36.80531 | 30.82181 | 4467 ft | 230 kts | 174° |
| 2026-05-06 12:20 | 36.78920 | 30.81998 | 5031 ft | 244 kts | 195° |
| 2026-05-06 12:20 | 36.77202 | 30.81542 | 5496 ft | 258 kts | 192° |
| 2026-05-06 12:20 | 36.75379 | 30.80977 | 5812 ft | 279 kts | 206° |
| 2026-05-06 12:21 | 36.73865 | 30.79503 | 6589 ft | 276 kts | 230° |
| 2026-05-06 12:21 | 36.72623 | 30.77674 | 7378 ft | 278 kts | 243° |
| 2026-05-06 12:21 | 36.72126 | 30.75400 | 8157 ft | 273 kts | 271° |
| 2026-05-06 12:21 | 36.72234 | 30.73040 | 9025 ft | 275 kts | 279° |
| 2026-05-06 12:22 | 36.72523 | 30.70675 | 9963 ft | 277 kts | 280° |
| 2026-05-06 12:22 | 36.72634 | 30.68227 | 10594 ft | 293 kts | 272° |
| 2026-05-06 12:22 | 36.72585 | 30.65581 | 10914 ft | 314 kts | 271° |
| 2026-05-06 12:22 | 36.72532 | 30.62873 | 11890 ft | 312 kts | 271° |
| 2026-05-06 12:23 | 36.72504 | 30.60166 | 12761 ft | 314 kts | 272° |
| 2026-05-06 12:23 | 36.72493 | 30.57426 | 13538 ft | 319 kts | 272° |
| 2026-05-06 12:23 | 36.72488 | 30.54640 | 14282 ft | 322 kts | 272° |
| 2026-05-06 12:23 | 36.72521 | 30.51832 | 15020 ft | 324 kts | 276° |
| 2026-05-06 12:24 | 36.72703 | 30.49029 | 15718 ft | 326 kts | 277° |
| 2026-05-06 12:24 | 36.72940 | 30.46205 | 16386 ft | 329 kts | 278° |
| 2026-05-06 12:24 | 36.73200 | 30.43356 | 17074 ft | 332 kts | 278° |
| 2026-05-06 12:24 | 36.73459 | 30.40482 | 17771 ft | 335 kts | 278° |
| 2026-05-06 12:25 | 36.73720 | 30.37591 | 18426 ft | 336 kts | 279° |
| 2026-05-06 12:25 | 36.73996 | 30.34769 | 19014 ft | 337 kts | 279° |
| 2026-05-06 12:25 | 36.74230 | 30.31846 | 19583 ft | 340 kts | 279° |
| 2026-05-06 12:25 | 36.74455 | 30.28922 | 20208 ft | 340 kts | 279° |
| 2026-05-06 12:26 | 36.74693 | 30.25974 | 20784 ft | 343 kts | 279° |
| 2026-05-06 12:26 | 36.74939 | 30.23001 | 21362 ft | 346 kts | 279° |
| 2026-05-06 12:26 | 36.75252 | 30.20069 | 21921 ft | 346 kts | 285° |
| 2026-05-06 12:26 | 36.75921 | 30.17192 | 22344 ft | 351 kts | 293° |
| 2026-05-06 12:27 | 36.76603 | 30.15311 | 22375 ft | 360 kts | 300° |
| 2026-05-06 12:28 | 36.78125 | 30.11814 | 22516 ft | 377 kts | 301° |
| 2026-05-06 12:28 | 36.79403 | 30.08897 | 22637 ft | 389 kts | 300° |
| 2026-05-06 12:28 | 36.80265 | 30.06903 | 22686 ft | 398 kts | 300° |
| 2026-05-06 12:29 | 36.81587 | 30.03815 | 22770 ft | 409 kts | 300° |
| 2026-05-06 12:29 | 36.83109 | 30.00795 | 22970 ft | 414 kts | 308° |
| 2026-05-06 12:29 | 36.84965 | 29.98051 | 23383 ft | 414 kts | 315° |
| 2026-05-06 12:29 | 36.87115 | 29.95661 | 23809 ft | 414 kts | 320° |
| 2026-05-06 12:30 | 36.89332 | 29.93343 | 24147 ft | 416 kts | 320° |
| 2026-05-06 12:30 | 36.91552 | 29.91007 | 24468 ft | 419 kts | 320° |
| 2026-05-06 12:30 | 36.93777 | 29.88637 | 24747 ft | 422 kts | 319° |
| 2026-05-06 12:30 | 36.96012 | 29.86239 | 25075 ft | 424 kts | 319° |
| 2026-05-06 12:31 | 36.98252 | 29.83837 | 25417 ft | 425 kts | 319° |
| 2026-05-06 12:31 | 37.00509 | 29.81442 | 25766 ft | 426 kts | 320° |
| 2026-05-06 12:31 | 37.02770 | 29.79054 | 26145 ft | 426 kts | 320° |
| 2026-05-06 12:31 | 37.05038 | 29.76657 | 26445 ft | 428 kts | 320° |
| 2026-05-06 12:32 | 37.07317 | 29.74243 | 26698 ft | 431 kts | 320° |
| 2026-05-06 12:32 | 37.09606 | 29.71814 | 26985 ft | 432 kts | 319° |
| 2026-05-06 12:32 | 37.11899 | 29.69378 | 27367 ft | 431 kts | 319° |
| 2026-05-06 12:32 | 37.14131 | 29.66878 | 27815 ft | 429 kts | 314° |
| 2026-05-06 12:33 | 37.15968 | 29.63942 | 28268 ft | 428 kts | 304° |
| 2026-05-06 12:33 | 37.17455 | 29.60717 | 28678 ft | 428 kts | 298° |
| 2026-05-06 12:33 | 37.18577 | 29.57242 | 29032 ft | 432 kts | 289° |
| 2026-05-06 12:33 | 37.19320 | 29.53643 | 29431 ft | 431 kts | 287° |
| 2026-05-06 12:34 | 37.20042 | 29.49951 | 29869 ft | 430 kts | 287° |
| 2026-05-06 12:34 | 37.20757 | 29.46377 | 30287 ft | 428 kts | 287° |
| 2026-05-06 12:34 | 37.21499 | 29.42768 | 30623 ft | 427 kts | 287° |
| 2026-05-06 12:34 | 37.22249 | 29.39164 | 30915 ft | 427 kts | 287° |
| 2026-05-06 12:35 | 37.23000 | 29.35562 | 31217 ft | 427 kts | 287° |
| 2026-05-06 12:35 | 37.23748 | 29.31962 | 31552 ft | 426 kts | 287° |
| 2026-05-06 12:35 | 37.24493 | 29.28369 | 31858 ft | 425 kts | 287° |
| 2026-05-06 12:35 | 37.25235 | 29.24783 | 32143 ft | 424 kts | 287° |
| 2026-05-06 12:36 | 37.25973 | 29.21201 | 32467 ft | 423 kts | 287° |
| 2026-05-06 12:36 | 37.26705 | 29.17639 | 32832 ft | 421 kts | 287° |
| 2026-05-06 12:36 | 37.27435 | 29.14080 | 33131 ft | 420 kts | 287° |
| 2026-05-06 12:36 | 37.28163 | 29.10525 | 33403 ft | 421 kts | 287° |
| 2026-05-06 12:37 | 37.28890 | 29.06972 | 33699 ft | 420 kts | 287° |
| 2026-05-06 12:37 | 37.29614 | 29.03423 | 34044 ft | 419 kts | 287° |
| 2026-05-06 12:37 | 37.30336 | 28.99884 | 34327 ft | 417 kts | 287° |
| 2026-05-06 12:37 | 37.31055 | 28.96352 | 34557 ft | 417 kts | 287° |
| 2026-05-06 12:38 | 37.31770 | 28.92832 | 34812 ft | 415 kts | 288° |
| 2026-05-06 12:38 | 37.32481 | 28.89325 | 35123 ft | 413 kts | 287° |
| 2026-05-06 12:38 | 37.33206 | 28.85749 | 35337 ft | 413 kts | 287° |
| 2026-05-06 12:38 | 37.33900 | 28.82323 | 35522 ft | 414 kts | 287° |
| 2026-05-06 12:39 | 37.34609 | 28.78810 | 35716 ft | 415 kts | 287° |
| 2026-05-06 12:39 | 37.35416 | 28.75339 | 35919 ft | 413 kts | 293° |
| 2026-05-06 12:39 | 37.36575 | 28.72051 | 36068 ft | 412 kts | 299° |
| 2026-05-06 12:39 | 37.38079 | 28.68989 | 36064 ft | 411 kts | 307° |
| 2026-05-06 12:40 | 37.41446 | 28.63189 | 36069 ft | 409 kts | 307° |
| 2026-05-06 12:40 | 37.44756 | 28.57420 | 36063 ft | 405 kts | 307° |
| 2026-05-06 12:41 | 37.48016 | 28.51681 | 36078 ft | 402 kts | 307° |
| 2026-05-06 12:41 | 37.51255 | 28.45967 | 36077 ft | 401 kts | 307° |
| 2026-05-06 12:42 | 37.54493 | 28.40245 | 36079 ft | 401 kts | 306° |
| 2026-05-06 12:42 | 37.57712 | 28.34545 | 36063 ft | 402 kts | 307° |
| 2026-05-06 12:43 | 37.60953 | 28.28796 | 36067 ft | 403 kts | 307° |
| 2026-05-06 12:43 | 37.64206 | 28.23017 | 36067 ft | 404 kts | 307° |
| 2026-05-06 12:44 | 37.67462 | 28.17221 | 36074 ft | 405 kts | 307° |
| 2026-05-06 12:44 | 37.70726 | 28.11402 | 36053 ft | 407 kts | 307° |
| 2026-05-06 12:45 | 37.73994 | 28.05564 | 36042 ft | 407 kts | 307° |
| 2026-05-06 12:46 | 37.78886 | 27.96807 | 36044 ft | 406 kts | 307° |
| 2026-05-06 12:46 | 37.82142 | 27.90964 | 36045 ft | 406 kts | 307° |
| 2026-05-06 12:47 | 37.85393 | 27.85121 | 36043 ft | 405 kts | 307° |
| 2026-05-06 12:47 | 37.88633 | 27.79289 | 36044 ft | 405 kts | 307° |
| 2026-05-06 12:48 | 37.91866 | 27.73460 | 36057 ft | 404 kts | 306° |
| 2026-05-06 12:48 | 37.95074 | 27.67670 | 36054 ft | 404 kts | 307° |
| 2026-05-06 12:49 | 37.98303 | 27.61831 | 36051 ft | 404 kts | 306° |
| 2026-05-06 12:49 | 38.01524 | 27.55996 | 36062 ft | 404 kts | 306° |
| 2026-05-06 12:50 | 38.04750 | 27.50140 | 36051 ft | 405 kts | 306° |
| 2026-05-06 12:50 | 38.07968 | 27.44289 | 36038 ft | 405 kts | 306° |
| 2026-05-06 12:51 | 38.11183 | 27.38431 | 36046 ft | 405 kts | 306° |
| 2026-05-06 12:51 | 38.14309 | 27.32727 | 36057 ft | 405 kts | 306° |
| 2026-05-06 12:52 | 38.17531 | 27.26838 | 36055 ft | 405 kts | 306° |
| 2026-05-06 12:52 | 38.20736 | 27.20967 | 36053 ft | 405 kts | 306° |
| 2026-05-06 12:53 | 38.23939 | 27.15091 | 36028 ft | 404 kts | 306° |
| 2026-05-06 12:53 | 38.27099 | 27.09282 | 36044 ft | 403 kts | 306° |
| 2026-05-06 12:54 | 38.30286 | 27.03415 | 36059 ft | 403 kts | 307° |
| 2026-05-06 12:54 | 38.33961 | 26.98089 | 36033 ft | 400 kts | 317° |
| 2026-05-06 12:55 | 38.38152 | 26.93413 | 36069 ft | 401 kts | 320° |
| 2026-05-06 12:55 | 38.42410 | 26.88863 | 36079 ft | 401 kts | 320° |
| 2026-05-06 12:56 | 38.46654 | 26.84241 | 36072 ft | 402 kts | 319° |
| 2026-05-06 12:56 | 38.50887 | 26.79567 | 36070 ft | 402 kts | 319° |
| 2026-05-06 12:57 | 38.55098 | 26.74891 | 36062 ft | 402 kts | 319° |
| 2026-05-06 12:57 | 38.59229 | 26.70295 | 36090 ft | 402 kts | 319° |
| 2026-05-06 12:58 | 38.63519 | 26.65515 | 36066 ft | 402 kts | 319° |
| 2026-05-06 12:58 | 38.67728 | 26.60817 | 36067 ft | 402 kts | 319° |
| 2026-05-06 12:59 | 38.71951 | 26.56097 | 36056 ft | 402 kts | 319° |
| 2026-05-06 12:59 | 38.76163 | 26.51381 | 36074 ft | 402 kts | 319° |
| 2026-05-06 13:00 | 38.80367 | 26.46667 | 36078 ft | 402 kts | 319° |
| 2026-05-06 13:00 | 38.84370 | 26.41686 | 36073 ft | 402 kts | 309° |
| 2026-05-06 13:01 | 38.87700 | 26.35916 | 36077 ft | 403 kts | 308° |
| 2026-05-06 13:01 | 38.91033 | 26.30132 | 36070 ft | 403 kts | 308° |
| 2026-05-06 13:02 | 38.94380 | 26.24345 | 36052 ft | 403 kts | 308° |
| 2026-05-06 13:02 | 38.97720 | 26.18576 | 36074 ft | 403 kts | 308° |
| 2026-05-06 13:03 | 39.01067 | 26.12789 | 36081 ft | 403 kts | 308° |
| 2026-05-06 13:03 | 39.04388 | 26.07035 | 36080 ft | 403 kts | 308° |
| 2026-05-06 13:04 | 39.07734 | 26.01227 | 36079 ft | 404 kts | 308° |
| 2026-05-06 13:04 | 39.11074 | 25.95421 | 36074 ft | 404 kts | 308° |
| 2026-05-06 13:05 | 39.14413 | 25.89604 | 36070 ft | 404 kts | 308° |
| 2026-05-06 13:05 | 39.17754 | 25.83775 | 36077 ft | 405 kts | 308° |
| 2026-05-06 13:06 | 39.21103 | 25.77919 | 36078 ft | 405 kts | 308° |
| 2026-05-06 13:06 | 39.24447 | 25.72063 | 36093 ft | 406 kts | 308° |
| 2026-05-06 13:07 | 39.27797 | 25.66184 | 36078 ft | 406 kts | 308° |
| 2026-05-06 13:07 | 39.31144 | 25.60301 | 36071 ft | 407 kts | 308° |
| 2026-05-06 13:08 | 39.34357 | 25.54641 | 36076 ft | 407 kts | 308° |
| 2026-05-06 13:08 | 39.37702 | 25.48740 | 36077 ft | 408 kts | 308° |
| 2026-05-06 13:09 | 39.41057 | 25.42809 | 36075 ft | 408 kts | 307° |
| 2026-05-06 13:09 | 39.43697 | 25.38135 | 36077 ft | 409 kts | 307° |
| 2026-05-06 13:10 | 39.47047 | 25.32194 | 36059 ft | 409 kts | 307° |
| 2026-05-06 13:10 | 39.48167 | 25.30205 | 36063 ft | 409 kts | 307° |
| 2026-05-06 13:11 | 39.51008 | 25.25154 | 36073 ft | 409 kts | 307° |
| 2026-05-06 13:11 | 39.54357 | 25.19188 | 36073 ft | 410 kts | 307° |
| 2026-05-06 13:12 | 39.57673 | 25.13275 | 36070 ft | 410 kts | 307° |
| 2026-05-06 13:12 | 39.61278 | 25.07571 | 36076 ft | 410 kts | 314° |
| 2026-05-06 13:13 | 39.65235 | 25.02259 | 36066 ft | 410 kts | 315° |
| 2026-05-06 13:13 | 39.69212 | 24.96947 | 36059 ft | 410 kts | 314° |
| 2026-05-06 13:14 | 39.73171 | 24.91595 | 36069 ft | 411 kts | 314° |
| 2026-05-06 13:14 | 39.77120 | 24.86216 | 36067 ft | 411 kts | 314° |
| 2026-05-06 13:15 | 39.81056 | 24.80834 | 36067 ft | 411 kts | 314° |
| 2026-05-06 13:15 | 39.84999 | 24.75430 | 36070 ft | 411 kts | 314° |
| 2026-05-06 13:16 | 39.88915 | 24.70056 | 36066 ft | 411 kts | 314° |
| 2026-05-06 13:16 | 39.92849 | 24.64648 | 36066 ft | 412 kts | 314° |
| 2026-05-06 13:17 | 39.96783 | 24.59229 | 36062 ft | 412 kts | 314° |
| 2026-05-06 13:17 | 40.00715 | 24.53805 | 36061 ft | 411 kts | 314° |
| 2026-05-06 13:18 | 40.04010 | 24.49250 | 36059 ft | 411 kts | 314° |
| 2026-05-06 13:18 | 40.07917 | 24.43843 | 36059 ft | 411 kts | 314° |
| 2026-05-06 13:19 | 40.11832 | 24.38413 | 36042 ft | 411 kts | 313° |
| 2026-05-06 13:19 | 40.15723 | 24.33007 | 36046 ft | 410 kts | 313° |
| 2026-05-06 13:20 | 40.19637 | 24.27559 | 36055 ft | 411 kts | 313° |
| 2026-05-06 13:20 | 40.23551 | 24.22103 | 36060 ft | 412 kts | 313° |
| 2026-05-06 13:21 | 40.27476 | 24.16619 | 36055 ft | 412 kts | 313° |
| 2026-05-06 13:21 | 40.31394 | 24.11138 | 36053 ft | 413 kts | 313° |
| 2026-05-06 13:22 | 40.35319 | 24.05635 | 36045 ft | 413 kts | 313° |
| 2026-05-06 13:22 | 40.39246 | 24.00119 | 36054 ft | 414 kts | 313° |
| 2026-05-06 13:23 | 40.43179 | 23.94586 | 36052 ft | 414 kts | 313° |
| 2026-05-06 13:23 | 40.47109 | 23.89045 | 36057 ft | 415 kts | 313° |
| 2026-05-06 13:24 | 40.51049 | 23.83482 | 36051 ft | 415 kts | 313° |
| 2026-05-06 13:24 | 40.54983 | 23.77915 | 36053 ft | 416 kts | 313° |
| 2026-05-06 13:25 | 40.58894 | 23.72371 | 36036 ft | 417 kts | 313° |
| 2026-05-06 13:25 | 40.62856 | 23.66743 | 36040 ft | 417 kts | 313° |
| 2026-05-06 13:26 | 40.66782 | 23.61158 | 36038 ft | 418 kts | 313° |
| 2026-05-06 13:26 | 40.70727 | 23.55535 | 36040 ft | 418 kts | 313° |
| 2026-05-06 13:27 | 40.74673 | 23.49899 | 36033 ft | 418 kts | 313° |
| 2026-05-06 13:27 | 40.78614 | 23.44260 | 36030 ft | 418 kts | 313° |
| 2026-05-06 13:28 | 40.82552 | 23.38614 | 36025 ft | 418 kts | 312° |
| 2026-05-06 13:28 | 40.86387 | 23.33108 | 35999 ft | 394 kts | 312° |
| 2026-05-06 13:28 | 40.88214 | 23.30480 | 36000 ft | 381 kts | 312° |
| 2026-05-06 13:29 | 40.89951 | 23.27980 | 35999 ft | 368 kts | 312° |
| 2026-05-06 13:29 | 40.91650 | 23.25533 | 36000 ft | 355 kts | 312° |
| 2026-05-06 13:29 | 40.93336 | 23.23102 | 36013 ft | 355 kts | 312° |
| 2026-05-06 13:30 | 40.96694 | 23.18252 | 36038 ft | 366 kts | 312° |
| 2026-05-06 13:30 | 41.00180 | 23.13211 | 36036 ft | 376 kts | 312° |
| 2026-05-06 13:31 | 41.03734 | 23.08062 | 36018 ft | 380 kts | 311° |
| 2026-05-06 13:31 | 41.07303 | 23.02885 | 36032 ft | 381 kts | 312° |
| 2026-05-06 13:32 | 41.11069 | 22.98041 | 36014 ft | 374 kts | 324° |
| 2026-05-06 13:32 | 41.15417 | 22.94301 | 36020 ft | 373 kts | 325° |
| 2026-05-06 13:32 | 41.17601 | 22.92440 | 35919 ft | 375 kts | 325° |
| 2026-05-06 13:33 | 41.19824 | 22.90532 | 35108 ft | 383 kts | 325° |
| 2026-05-06 13:33 | 41.22078 | 22.88585 | 34123 ft | 390 kts | 325° |
| 2026-05-06 13:33 | 41.24363 | 22.86604 | 33087 ft | 395 kts | 325° |
| 2026-05-06 13:33 | 41.26695 | 22.84578 | 31966 ft | 400 kts | 324° |
| 2026-05-06 13:34 | 41.29026 | 22.82522 | 30807 ft | 405 kts | 321° |
| 2026-05-06 13:34 | 41.30998 | 22.79852 | 29588 ft | 408 kts | 303° |
| 2026-05-06 13:34 | 41.32322 | 22.76568 | 28347 ft | 410 kts | 292° |
| 2026-05-06 13:34 | 41.33060 | 22.72888 | 27119 ft | 415 kts | 278° |
| 2026-05-06 13:35 | 41.33202 | 22.68997 | 25940 ft | 417 kts | 273° |
| 2026-05-06 13:35 | 41.33226 | 22.65182 | 24831 ft | 417 kts | 272° |
| 2026-05-06 13:35 | 41.33227 | 22.61329 | 23750 ft | 416 kts | 272° |
| 2026-05-06 13:35 | 41.33229 | 22.57494 | 22520 ft | 415 kts | 272° |
| 2026-05-06 13:36 | 41.33241 | 22.53653 | 21302 ft | 414 kts | 272° |
| 2026-05-06 13:36 | 41.33263 | 22.49828 | 20132 ft | 412 kts | 272° |
| 2026-05-06 13:36 | 41.33291 | 22.46083 | 18960 ft | 411 kts | 272° |
| 2026-05-06 13:36 | 41.33316 | 22.42274 | 17734 ft | 410 kts | 272° |
| 2026-05-06 13:37 | 41.33327 | 22.38489 | 16440 ft | 408 kts | 271° |
| 2026-05-06 13:37 | 41.33361 | 22.34721 | 15203 ft | 406 kts | 272° |
| 2026-05-06 13:37 | 41.33401 | 22.31004 | 14059 ft | 404 kts | 272° |
| 2026-05-06 13:37 | 41.33454 | 22.27336 | 13342 ft | 389 kts | 273° |
| 2026-05-06 13:38 | 41.33561 | 22.23776 | 12373 ft | 382 kts | 271° |
| 2026-05-06 13:38 | 41.33521 | 22.20277 | 11375 ft | 378 kts | 269° |
| 2026-05-06 13:38 | 41.33518 | 22.16795 | 10668 ft | 368 kts | 270° |
| 2026-05-06 13:38 | 41.33532 | 22.13504 | 10469 ft | 344 kts | 270° |
| 2026-05-06 13:39 | 41.33553 | 22.10428 | 10350 ft | 322 kts | 269° |
| 2026-05-06 13:39 | 41.33577 | 22.07507 | 10247 ft | 310 kts | 268° |
| 2026-05-06 13:39 | 41.33582 | 22.04695 | 10213 ft | 297 kts | 269° |
| 2026-05-06 13:39 | 41.33612 | 22.02005 | 10212 ft | 286 kts | 268° |
| 2026-05-06 13:40 | 41.33594 | 21.99399 | 10092 ft | 278 kts | 269° |
| 2026-05-06 13:40 | 41.33622 | 21.96890 | 10015 ft | 271 kts | 269° |
| 2026-05-06 13:40 | 41.33641 | 21.94411 | 9890 ft | 264 kts | 268° |
| 2026-05-06 13:40 | 41.33665 | 21.92033 | 9802 ft | 256 kts | 269° |
| 2026-05-06 13:41 | 41.33798 | 21.89702 | 9693 ft | 257 kts | 278° |
| 2026-05-06 13:41 | 41.34253 | 21.87411 | 9580 ft | 257 kts | 288° |
| 2026-05-06 13:41 | 41.35074 | 21.85369 | 9402 ft | 261 kts | 306° |
| 2026-05-06 13:41 | 41.36326 | 21.83617 | 9263 ft | 261 kts | 317° |
| 2026-05-06 13:42 | 41.37798 | 21.82253 | 9126 ft | 262 kts | 330° |
| 2026-05-06 13:42 | 41.39453 | 21.81269 | 8873 ft | 262 kts | 340° |
| 2026-05-06 13:42 | 41.41187 | 21.80661 | 8696 ft | 260 kts | 346° |
| 2026-05-06 13:42 | 41.42944 | 21.80145 | 8488 ft | 257 kts | 346° |
| 2026-05-06 13:43 | 41.44676 | 21.79599 | 8349 ft | 259 kts | 344° |
| 2026-05-06 13:43 | 41.46408 | 21.78998 | 8240 ft | 264 kts | 344° |
| 2026-05-06 13:43 | 41.48220 | 21.78378 | 8072 ft | 269 kts | 344° |
| 2026-05-06 13:43 | 41.50051 | 21.77807 | 7928 ft | 272 kts | 345° |
| 2026-05-06 13:44 | 41.51893 | 21.77218 | 7757 ft | 272 kts | 345° |
| 2026-05-06 13:44 | 41.53699 | 21.76641 | 7596 ft | 268 kts | 343° |
| 2026-05-06 13:44 | 41.55496 | 21.76115 | 7404 ft | 264 kts | 346° |
| 2026-05-06 13:44 | 41.57271 | 21.75575 | 7225 ft | 263 kts | 346° |
| 2026-05-06 13:45 | 41.59008 | 21.74991 | 7057 ft | 263 kts | 341° |
| 2026-05-06 13:45 | 41.62595 | 21.73750 | 6684 ft | 270 kts | 346° |
| 2026-05-06 13:45 | 41.64420 | 21.73164 | 6444 ft | 268 kts | 343° |
| 2026-05-06 13:46 | 41.66192 | 21.72526 | 6264 ft | 260 kts | 343° |
| 2026-05-06 13:46 | 41.67919 | 21.71933 | 6009 ft | 251 kts | 340° |
| 2026-05-06 13:46 | 41.69574 | 21.71322 | 5802 ft | 242 kts | 342° |
| 2026-05-06 13:46 | 41.71181 | 21.70784 | 5537 ft | 235 kts | 342° |
| 2026-05-06 13:47 | 41.72751 | 21.70279 | 5211 ft | 230 kts | 343° |
| 2026-05-06 13:47 | 41.74279 | 21.69757 | 4906 ft | 226 kts | 344° |
| 2026-05-06 13:47 | 41.75795 | 21.69223 | 4533 ft | 227 kts | 345° |
| 2026-05-06 13:47 | 41.77312 | 21.68695 | 4173 ft | 226 kts | 346° |
| 2026-05-06 13:48 | 41.78836 | 21.68200 | 3831 ft | 225 kts | 348° |
| 2026-05-06 13:48 | 41.80357 | 21.67699 | 3421 ft | 226 kts | 346° |
| 2026-05-06 13:48 | 41.81822 | 21.67133 | 3360 ft | 210 kts | 344° |
| 2026-05-06 13:48 | 41.83174 | 21.66695 | 3323 ft | 197 kts | 348° |
| 2026-05-06 13:49 | 41.84510 | 21.66230 | 3098 ft | 200 kts | 347° |
| 2026-05-06 13:49 | 41.85837 | 21.65743 | 2824 ft | 197 kts | 346° |
| 2026-05-06 13:49 | 41.87126 | 21.65294 | 2530 ft | 187 kts | 347° |
| 2026-05-06 13:49 | 41.88335 | 21.64878 | 2284 ft | 175 kts | 346° |
| 2026-05-06 13:50 | 41.89454 | 21.64469 | 2041 ft | 162 kts | 348° |
| 2026-05-06 13:50 | 41.90555 | 21.64097 | 1736 ft | 165 kts | 347° |
| 2026-05-06 13:50 | 41.91658 | 21.63718 | 1448 ft | 165 kts | 346° |
| 2026-05-06 13:50 | 41.92783 | 21.63315 | 1263 ft | 169 kts | 345° |
| 2026-05-06 13:51 | 41.93922 | 21.62920 | 1086 ft | 171 kts | 346° |
| 2026-05-06 13:51 | 41.95095 | 21.62515 | 821 ft | 176 kts | 346° |
| 2026-05-06 13:51 | 41.96200 | 21.62135 | 788 ft | 147 kts | 346° |
| 2026-05-06 13:51 | 41.96865 | 21.61899 | 790 ft | 45 kts | 345° |
| 2026-05-06 13:52 | 41.96996 | 21.61883 | 803 ft | 10 kts | 50° |
| 2026-05-06 13:52 | 41.96991 | 21.61966 | 789 ft | 10 kts | 125° |
| 2026-05-06 13:52 | 41.96950 | 21.62036 | 791 ft | 9 kts | 129° |
| 2026-05-06 13:52 | 41.96910 | 21.62104 | 792 ft | 9 kts | 129° |
| 2026-05-06 13:53 | 41.96865 | 21.62162 | 793 ft | 9 kts | 152° |
| 2026-05-06 13:53 | 41.96807 | 21.62185 | 792 ft | 9 kts | 167° |
| 2026-05-06 13:53 | 41.96749 | 21.62204 | 792 ft | 8 kts | 165° |
| 2026-05-06 13:53 | 41.96691 | 21.62224 | 792 ft | 9 kts | 165° |
| 2026-05-06 13:54 | 41.96620 | 21.62250 | 792 ft | 12 kts | 165° |
| 2026-05-06 13:54 | 41.96535 | 21.62279 | 792 ft | 15 kts | 165° |
| 2026-05-06 13:54 | 41.96423 | 21.62320 | 792 ft | 19 kts | 165° |
| 2026-05-06 13:54 | 41.96299 | 21.62363 | 791 ft | 15 kts | 165° |
| 2026-05-06 13:55 | 41.96202 | 21.62397 | 791 ft | 14 kts | 165° |
| 2026-05-06 13:55 | 41.96152 | 21.62415 | 790 ft | 0 kts | 165° |
| 2026-05-06 13:56 | 41.96149 | 21.62416 | 790 ft | 1 kts | 165° |
| 2026-05-06 13:56 | 41.96140 | 21.62420 | 790 ft | 3 kts | 163° |
| 2026-05-06 13:56 | 41.96112 | 21.62430 | 790 ft | 6 kts | 165° |
| 2026-05-06 13:56 | 41.96066 | 21.62447 | 790 ft | 8 kts | 164° |
| 2026-05-06 13:57 | 41.96018 | 21.62480 | 791 ft | 8 kts | 111° |
| 2026-05-06 13:57 | 41.96017 | 21.62520 | 792 ft | 0 kts | 78° |
| 2026-05-06 13:59 | 41.96018 | 21.62520 | 792 ft | 0 kts | 78° |
| 2026-05-06 13:59 | 41.96022 | 21.62545 | 792 ft | 5 kts | 77° |
| 2026-05-06 14:00 | 41.96030 | 21.62590 | 792 ft | 4 kts | 76° |
| 2026-05-06 14:00 | 41.96031 | 21.62595 | 792 ft | 0 kts | 76° |